createdAt,value
2023-10-04T00:01:30.509Z,19.17
2023-10-04T00:03:57.393Z,18.90
2023-10-04T00:06:24.139Z,19.32
2023-10-04T00:08:50.968Z,18.51
2023-10-04T00:11:17.796Z,18.61
2023-10-04T00:13:47.274Z,18.63
2023-10-04T00:16:14.606Z,18.78
2023-10-04T00:18:41.372Z,18.64
2023-10-04T00:21:11.699Z,18.47
2023-10-04T00:23:42.192Z,18.50
2023-10-04T00:26:09.580Z,18.61
2023-10-04T00:28:39.318Z,18.85
2023-10-04T00:31:06.940Z,18.20
2023-10-04T00:33:36.709Z,18.38
2023-10-04T00:36:07.191Z,18.23
2023-10-04T00:38:34.055Z,18.25
2023-10-04T00:41:00.951Z,18.48
2023-10-04T00:43:27.731Z,18.78
2023-10-04T00:45:54.763Z,18.92
2023-10-04T00:48:35.934Z,18.68
2023-10-04T00:51:02.892Z,18.67
2023-10-04T00:53:30.968Z,18.39
2023-10-04T00:55:58.531Z,18.37
2023-10-04T00:58:26.697Z,18.47
2023-10-04T01:00:53.807Z,18.42
2023-10-04T01:03:21.521Z,18.45
2023-10-04T01:05:49.111Z,18.72
2023-10-04T01:08:16.973Z,18.95
2023-10-04T01:10:45.876Z,18.80
2023-10-04T01:13:12.982Z,18.83
2023-10-04T01:15:40.809Z,18.82
2023-10-04T01:18:10.605Z,18.79
2023-10-04T01:20:39.768Z,18.63
2023-10-04T01:23:13.714Z,18.71
2023-10-04T01:25:42.564Z,18.56
2023-10-04T01:28:18.227Z,18.57
2023-10-04T01:30:53.201Z,18.60
2023-10-04T01:33:20.577Z,18.67
2023-10-04T01:35:55.111Z,18.61
2023-10-04T01:38:33.496Z,18.61
2023-10-04T01:41:00.575Z,18.44
2023-10-04T01:43:28.571Z,18.50
2023-10-04T01:45:58.764Z,18.57
2023-10-04T01:48:28.066Z,18.31
2023-10-04T01:50:55.175Z,17.99
2023-10-04T01:53:27.752Z,18.08
2023-10-04T01:55:57.838Z,17.85
2023-10-04T01:58:25.105Z,17.90
2023-10-04T02:00:54.244Z,17.94
2023-10-04T02:03:21.821Z,18.31
2023-10-04T02:05:58.315Z,18.48
2023-10-04T02:08:26.155Z,18.33
2023-10-04T02:10:53.689Z,18.69
2023-10-04T02:13:20.664Z,18.83
2023-10-04T02:15:52.107Z,18.88
2023-10-04T02:18:21.024Z,18.92
2023-10-04T02:20:50.118Z,18.96
2023-10-04T02:23:18.125Z,18.89
2023-10-04T02:25:46.842Z,18.83
2023-10-04T02:28:19.751Z,18.84
2023-10-04T02:30:49.641Z,18.35
2023-10-04T02:33:18.348Z,18.43
2023-10-04T02:35:48.507Z,18.31
2023-10-04T02:38:27.666Z,18.17
2023-10-04T02:40:55.444Z,18.09
2023-10-04T02:43:26.512Z,17.93
2023-10-04T02:45:54.593Z,18.17
2023-10-04T02:48:21.753Z,18.17
2023-10-04T02:50:48.923Z,18.32
2023-10-04T02:53:26.185Z,18.35
2023-10-04T02:55:58.423Z,18.27
2023-10-04T02:58:31.676Z,18.13
2023-10-04T03:00:58.934Z,17.92
2023-10-04T03:03:26.088Z,17.83
2023-10-04T03:05:59.080Z,17.92
2023-10-04T03:08:28.301Z,17.84
2023-10-04T03:10:56.773Z,17.97
2023-10-04T03:13:27.187Z,17.90
2023-10-04T03:15:59.053Z,18.12
2023-10-04T03:18:29.351Z,18.06
2023-10-04T03:21:02.371Z,18.08
2023-10-04T03:23:37.101Z,18.05
2023-10-04T03:26:14.065Z,18.06
2023-10-04T03:28:42.563Z,17.83
2023-10-04T03:31:15.742Z,17.92
2023-10-04T03:33:46.766Z,18.19
2023-10-04T03:36:21.186Z,18.17
2023-10-04T03:38:55.150Z,18.20
2023-10-04T03:41:22.718Z,18.30
2023-10-04T03:43:52.176Z,18.56
2023-10-04T03:46:21.942Z,18.28
2023-10-04T03:48:54.002Z,18.23
2023-10-04T03:51:23.038Z,18.17
2023-10-04T03:53:52.505Z,17.92
2023-10-04T03:56:22.035Z,17.75
2023-10-04T03:58:50.497Z,17.72
2023-10-04T04:01:18.484Z,17.49
2023-10-04T04:03:50.792Z,17.17
2023-10-04T04:06:18.485Z,17.32
2023-10-04T04:08:47.986Z,17.46
2023-10-04T04:11:15.597Z,17.65
2023-10-04T04:13:43.236Z,17.75
2023-10-04T04:16:12.815Z,17.72
2023-10-04T04:18:41.741Z,17.73
2023-10-04T04:21:09.824Z,17.78
2023-10-04T04:23:38.000Z,17.72
2023-10-04T04:26:09.479Z,17.56
2023-10-04T04:28:38.890Z,17.58
2023-10-04T04:31:16.600Z,17.63
2023-10-04T04:33:45.950Z,17.72
2023-10-04T04:36:29.097Z,17.59
2023-10-04T04:39:07.343Z,17.50
2023-10-04T04:41:36.816Z,17.62
2023-10-04T04:44:08.826Z,17.56
2023-10-04T04:46:37.072Z,17.16
2023-10-04T04:49:05.427Z,17.48
2023-10-04T04:51:33.085Z,17.76
2023-10-04T04:54:00.252Z,18.03
2023-10-04T04:56:33.039Z,17.67
2023-10-04T04:59:10.511Z,17.23
2023-10-04T05:01:41.268Z,17.36
2023-10-04T05:04:09.364Z,17.61
2023-10-04T05:06:38.178Z,17.62
2023-10-04T05:09:06.701Z,17.64
2023-10-04T05:11:33.986Z,17.99
2023-10-04T05:14:01.566Z,17.96
2023-10-04T05:16:28.375Z,17.38
2023-10-04T05:18:55.675Z,17.09
2023-10-04T05:21:22.960Z,17.26
2023-10-04T05:23:49.902Z,17.18
2023-10-04T05:26:16.703Z,17.44
2023-10-04T05:28:43.452Z,17.42
2023-10-04T05:31:10.476Z,17.85
2023-10-04T05:33:37.758Z,17.53
2023-10-04T05:36:05.162Z,17.82
2023-10-04T05:38:33.488Z,17.61
2023-10-04T05:41:02.181Z,17.65
2023-10-04T05:43:30.807Z,17.71
2023-10-04T05:45:58.551Z,17.76
2023-10-04T05:48:27.630Z,17.83
2023-10-04T05:50:59.691Z,17.86
2023-10-04T05:53:27.687Z,18.05
2023-10-04T05:55:55.416Z,17.71
2023-10-04T05:58:22.913Z,17.73
2023-10-04T06:00:57.911Z,17.95
2023-10-04T06:03:25.105Z,18.24
2023-10-04T06:05:54.984Z,18.42
2023-10-04T06:08:23.074Z,18.55
2023-10-04T06:10:52.713Z,18.68
2023-10-04T06:13:24.014Z,18.71
2023-10-04T06:15:54.894Z,18.77
2023-10-04T06:18:27.671Z,18.87
2023-10-04T06:20:54.827Z,18.92
2023-10-04T06:23:22.674Z,19.22
2023-10-04T06:25:51.218Z,19.38
2023-10-04T06:28:18.768Z,19.79
2023-10-04T06:30:49.903Z,20.09
2023-10-04T06:33:17.394Z,20.46
2023-10-04T06:35:44.967Z,20.75
2023-10-04T06:38:13.735Z,21.10
2023-10-04T06:40:41.152Z,21.44
2023-10-04T06:43:12.113Z,21.77
2023-10-04T06:45:41.239Z,22.18
2023-10-04T06:48:09.293Z,22.74
2023-10-04T06:50:40.293Z,22.80
2023-10-04T06:53:10.330Z,23.11
2023-10-04T06:55:38.754Z,23.00
2023-10-04T06:58:07.996Z,22.92
2023-10-04T07:00:38.517Z,23.28
2023-10-04T07:03:06.674Z,22.90
2023-10-04T07:05:38.589Z,22.70
2023-10-04T07:08:07.951Z,22.69
2023-10-04T07:10:36.251Z,23.01
2023-10-04T07:13:04.465Z,22.81
2023-10-04T07:15:36.643Z,23.00
2023-10-04T07:18:08.450Z,23.32
2023-10-04T07:20:36.126Z,23.35
2023-10-04T07:23:09.305Z,23.54
2023-10-04T07:25:39.357Z,23.65
2023-10-04T07:28:10.714Z,23.85
2023-10-04T07:30:40.812Z,23.55
2023-10-04T07:33:11.442Z,23.65
2023-10-04T07:35:38.683Z,23.41
2023-10-04T07:38:06.337Z,23.13
2023-10-04T07:40:33.759Z,23.05
2023-10-04T07:43:02.361Z,23.32
2023-10-04T07:45:30.632Z,23.06
2023-10-04T07:47:58.686Z,23.27
2023-10-04T07:50:27.356Z,23.51
2023-10-04T07:53:00.981Z,23.30
2023-10-04T07:55:28.749Z,23.59
2023-10-04T07:58:05.682Z,23.74
2023-10-04T08:00:37.855Z,23.68
2023-10-04T08:03:05.780Z,23.22
2023-10-04T08:05:33.983Z,23.30
2023-10-04T08:08:07.154Z,23.30
2023-10-04T08:10:37.016Z,23.00
2023-10-04T08:13:05.501Z,22.86
2023-10-04T08:15:36.673Z,22.59
2023-10-04T08:18:05.326Z,22.67
2023-10-04T08:20:34.993Z,22.85
2023-10-04T08:23:03.951Z,22.94
2023-10-04T08:25:33.200Z,22.77
2023-10-04T08:28:01.191Z,23.20
2023-10-04T08:30:29.492Z,22.92
2023-10-04T08:32:56.385Z,23.16
2023-10-04T08:35:23.597Z,23.20
2023-10-04T08:37:54.287Z,23.72
2023-10-04T08:40:22.558Z,24.03
2023-10-04T08:42:51.770Z,24.15
2023-10-04T08:45:22.858Z,24.08
2023-10-04T08:47:51.881Z,23.48
2023-10-04T08:50:39.730Z,23.45
2023-10-04T08:53:12.953Z,22.95
2023-10-04T08:55:42.415Z,22.69
2023-10-04T08:58:10.808Z,23.29
2023-10-04T09:00:44.477Z,23.49
2023-10-04T09:03:14.040Z,23.55
2023-10-04T09:05:47.391Z,23.30
2023-10-04T09:08:17.945Z,23.40
2023-10-04T09:10:46.389Z,23.84
2023-10-04T09:13:13.934Z,23.67
2023-10-04T09:15:41.849Z,23.80
2023-10-04T09:18:09.449Z,23.15
2023-10-04T09:20:38.038Z,22.73
2023-10-04T09:23:17.063Z,23.11
2023-10-04T09:25:46.635Z,23.59
2023-10-04T09:28:13.557Z,24.00
2023-10-04T09:30:40.447Z,24.09
2023-10-04T09:33:30.057Z,24.43
2023-10-04T09:35:57.224Z,24.34
2023-10-04T09:38:26.322Z,23.91
2023-10-04T09:40:58.266Z,23.79
2023-10-04T09:43:36.495Z,23.47
2023-10-04T09:46:08.818Z,23.37
2023-10-04T09:48:43.193Z,23.42
2023-10-04T09:51:11.034Z,23.49
2023-10-04T09:53:41.951Z,23.45
2023-10-04T09:56:13.706Z,23.53
2023-10-04T09:59:00.783Z,23.91
2023-10-04T10:01:30.539Z,24.28
2023-10-04T10:04:04.247Z,24.33
2023-10-04T10:06:36.323Z,24.07
2023-10-04T10:09:06.336Z,24.40
2023-10-04T10:11:34.089Z,24.79
2023-10-04T10:14:05.472Z,24.96
2023-10-04T10:16:35.382Z,24.66
2023-10-04T10:19:04.948Z,24.59
2023-10-04T10:22:07.414Z,24.68
2023-10-04T10:24:34.904Z,24.50
2023-10-04T10:27:09.044Z,24.06
2023-10-04T10:29:37.669Z,24.14
2023-10-04T10:32:10.461Z,23.92
2023-10-04T10:34:37.413Z,23.99
2023-10-04T10:37:23.685Z,23.85
2023-10-04T10:39:52.583Z,23.67
2023-10-04T10:42:20.390Z,23.79
2023-10-04T10:44:49.193Z,24.13
2023-10-04T10:47:26.900Z,23.80
2023-10-04T10:49:57.585Z,23.69
2023-10-04T10:52:35.902Z,23.42
2023-10-04T10:55:06.900Z,23.33
2023-10-04T10:57:38.023Z,23.33
2023-10-04T11:00:20.431Z,23.43
2023-10-04T11:02:55.012Z,23.55
2023-10-04T11:05:23.314Z,23.59
2023-10-04T11:07:51.908Z,23.46
2023-10-04T11:10:18.926Z,23.40
2023-10-04T11:12:47.987Z,23.50
2023-10-04T11:15:19.314Z,23.32
2023-10-04T11:17:47.445Z,23.40
2023-10-04T11:20:19.244Z,23.43
2023-10-04T11:22:46.925Z,23.44
2023-10-04T11:25:14.884Z,23.32
2023-10-04T11:27:51.750Z,23.19
2023-10-04T11:30:20.237Z,22.91
2023-10-04T11:32:47.704Z,22.79
2023-10-04T11:35:19.912Z,23.07
2023-10-04T11:37:49.935Z,23.19
2023-10-04T11:40:26.332Z,23.17
2023-10-04T11:43:04.665Z,23.29
2023-10-04T11:45:33.186Z,23.29
2023-10-04T11:48:09.355Z,23.18
2023-10-04T11:50:46.950Z,23.30
2023-10-04T11:53:14.565Z,23.20
2023-10-04T11:55:41.800Z,23.32
2023-10-04T11:58:11.658Z,23.17
2023-10-04T12:00:38.938Z,23.35
2023-10-04T12:03:07.522Z,23.53
2023-10-04T12:05:34.670Z,23.29
2023-10-04T12:08:02.455Z,23.15
2023-10-04T12:10:29.368Z,22.51
2023-10-04T12:12:59.181Z,22.15
2023-10-04T12:15:26.770Z,22.20
2023-10-04T12:17:53.821Z,22.21
2023-10-04T12:20:22.159Z,22.48
2023-10-04T12:22:53.183Z,22.31
2023-10-04T12:25:23.136Z,22.70
2023-10-04T12:27:55.416Z,22.49
2023-10-04T12:30:25.122Z,22.57
2023-10-04T12:32:52.832Z,22.64
2023-10-04T12:35:19.788Z,22.49
2023-10-04T12:37:46.745Z,22.55
2023-10-04T12:40:33.885Z,22.28
2023-10-04T12:43:01.015Z,22.11
2023-10-04T12:45:30.592Z,22.25
2023-10-04T12:47:57.922Z,22.26
2023-10-04T12:50:26.214Z,22.47
2023-10-04T12:52:53.067Z,22.56
2023-10-04T12:55:19.773Z,22.67
2023-10-04T12:57:46.976Z,22.60
2023-10-04T13:00:17.407Z,22.34
2023-10-04T13:02:45.752Z,22.63
2023-10-04T13:05:15.614Z,22.35
2023-10-04T13:07:44.178Z,22.19
2023-10-04T13:10:12.099Z,22.27
2023-10-04T13:12:39.807Z,22.04
2023-10-04T13:15:08.080Z,21.71
2023-10-04T13:17:38.822Z,22.05
2023-10-04T13:20:10.590Z,22.26
2023-10-04T13:22:37.490Z,22.33
2023-10-04T13:25:08.105Z,22.08
2023-10-04T13:27:36.196Z,22.12
2023-10-04T13:30:03.320Z,21.94
2023-10-04T13:32:31.448Z,21.95
2023-10-04T13:34:58.762Z,22.08
2023-10-04T13:37:25.555Z,22.14
2023-10-04T13:39:52.909Z,22.27
2023-10-04T13:42:28.672Z,22.26
2023-10-04T13:44:58.503Z,22.19
2023-10-04T13:47:25.474Z,22.12
2023-10-04T13:49:52.302Z,22.22
2023-10-04T13:52:20.397Z,22.23
2023-10-04T13:54:54.797Z,22.20
2023-10-04T13:57:24.051Z,22.02
2023-10-04T13:59:50.893Z,22.03
2023-10-04T14:02:20.157Z,21.83
2023-10-04T14:04:47.487Z,21.96
2023-10-04T14:07:15.178Z,21.65
2023-10-04T14:09:42.143Z,21.74
2023-10-04T14:12:08.763Z,21.79
2023-10-04T14:14:46.697Z,21.80
2023-10-04T14:17:14.856Z,21.83
2023-10-04T14:19:43.696Z,21.87
2023-10-04T14:22:11.435Z,21.98
2023-10-04T14:24:38.273Z,21.98
2023-10-04T14:27:05.037Z,22.03
2023-10-04T14:29:32.028Z,22.09
2023-10-04T14:31:59.163Z,22.28
2023-10-04T14:34:26.212Z,22.27
2023-10-04T14:36:52.942Z,22.39
2023-10-04T14:39:22.871Z,22.29
2023-10-04T14:41:50.008Z,22.43
2023-10-04T14:44:19.957Z,22.47
2023-10-04T14:46:49.863Z,22.54
2023-10-04T14:49:19.934Z,22.52
2023-10-04T14:51:47.396Z,22.43
2023-10-04T14:54:15.252Z,22.31
2023-10-04T14:56:43.087Z,22.08
2023-10-04T14:59:10.051Z,21.99
2023-10-04T15:01:36.648Z,21.93
2023-10-04T15:04:04.978Z,21.91
2023-10-04T15:06:32.093Z,21.95
2023-10-04T15:08:58.757Z,21.87
2023-10-04T15:11:30.676Z,21.86
2023-10-04T15:13:59.337Z,21.87
2023-10-04T15:16:26.510Z,21.90
2023-10-04T15:18:54.533Z,21.92
2023-10-04T15:21:21.500Z,21.94
2023-10-04T15:23:48.337Z,21.92
2023-10-04T15:26:14.949Z,21.86
2023-10-04T15:28:45.435Z,21.85
2023-10-04T15:31:14.608Z,21.81
2023-10-04T15:33:42.533Z,21.75
2023-10-04T15:36:10.327Z,21.71
2023-10-04T15:38:37.992Z,21.56
2023-10-04T15:41:04.839Z,21.59
2023-10-04T15:43:31.648Z,21.61
2023-10-04T15:45:59.562Z,21.58
2023-10-04T15:48:26.613Z,21.58
2023-10-04T15:50:53.337Z,21.46
2023-10-04T15:53:20.078Z,21.50
2023-10-04T15:55:46.886Z,21.39
2023-10-04T15:58:13.672Z,21.28
2023-10-04T16:00:42.335Z,21.24
2023-10-04T16:03:10.830Z,21.20
2023-10-04T16:05:37.740Z,21.13
2023-10-04T16:08:05.576Z,21.02
2023-10-04T16:10:32.427Z,21.02
2023-10-04T16:13:00.481Z,20.98
2023-10-04T16:15:27.666Z,20.93
2023-10-04T16:17:55.676Z,20.97
2023-10-04T16:20:23.051Z,20.90
2023-10-04T16:22:55.720Z,20.77
2023-10-04T16:25:22.870Z,20.77
2023-10-04T16:27:51.471Z,20.74
2023-10-04T16:30:19.841Z,20.55
2023-10-04T16:32:48.070Z,20.54
2023-10-04T16:35:16.873Z,20.51
2023-10-04T16:37:46.586Z,20.46
2023-10-04T16:40:16.612Z,20.47
2023-10-04T16:42:47.259Z,20.44
2023-10-04T16:45:14.284Z,20.35
2023-10-04T16:47:42.803Z,20.32
2023-10-04T16:50:09.870Z,20.33
2023-10-04T16:52:37.015Z,20.29
2023-10-04T16:55:08.785Z,20.26
2023-10-04T16:57:35.792Z,20.21
2023-10-04T17:00:02.898Z,20.03
2023-10-04T17:02:29.695Z,19.93
2023-10-04T17:04:56.459Z,19.84
2023-10-04T17:07:23.836Z,19.94
2023-10-04T17:09:50.867Z,19.94
2023-10-04T17:12:17.748Z,20.04
2023-10-04T17:14:44.467Z,19.97
2023-10-04T17:17:11.346Z,19.98
2023-10-04T17:19:38.648Z,20.03
2023-10-04T17:22:05.566Z,19.92
2023-10-04T17:24:32.403Z,19.90
2023-10-04T17:26:59.192Z,19.88
2023-10-04T17:29:25.958Z,19.84
2023-10-04T17:31:53.013Z,19.84
2023-10-04T17:34:19.795Z,19.74
2023-10-04T17:36:46.608Z,19.79
2023-10-04T17:39:15.267Z,19.75
2023-10-04T17:41:42.448Z,19.67
2023-10-04T17:44:09.430Z,19.61
2023-10-04T17:46:36.693Z,19.58
2023-10-04T17:49:03.628Z,19.56
2023-10-04T17:51:30.750Z,19.51
2023-10-04T17:54:00.189Z,19.49
2023-10-04T17:56:27.055Z,19.48
2023-10-04T17:58:53.791Z,19.47
2023-10-04T18:01:22.209Z,19.43
2023-10-04T18:03:49.231Z,19.39
2023-10-04T18:06:19.598Z,19.33
2023-10-04T18:08:46.475Z,19.31
2023-10-04T18:11:13.358Z,19.27
2023-10-04T18:13:41.945Z,19.21
2023-10-04T18:16:09.107Z,19.11
2023-10-04T18:18:36.172Z,19.08
2023-10-04T18:21:02.970Z,18.99
2023-10-04T18:23:29.791Z,18.68
2023-10-04T18:25:58.708Z,18.79
2023-10-04T18:28:25.446Z,18.76
2023-10-04T18:30:52.367Z,18.68
2023-10-04T18:33:19.247Z,18.68
2023-10-04T18:35:46.019Z,18.50
2023-10-04T18:38:12.804Z,18.46
2023-10-04T18:40:39.580Z,18.25
2023-10-04T18:43:07.674Z,18.27
2023-10-04T18:45:36.040Z,18.23
2023-10-04T18:48:03.253Z,18.20
2023-10-04T18:50:30.019Z,18.24
2023-10-04T18:52:56.803Z,18.26
2023-10-04T18:55:23.661Z,18.21
2023-10-04T18:57:50.490Z,18.20
2023-10-04T19:00:17.614Z,18.21
2023-10-04T19:02:45.048Z,18.24
2023-10-04T19:05:13.859Z,18.21
2023-10-04T19:07:41.165Z,18.00
2023-10-04T19:10:11.114Z,17.93
2023-10-04T19:12:38.011Z,17.84
2023-10-04T19:15:07.404Z,17.69
2023-10-04T19:17:34.230Z,17.65
2023-10-04T19:20:01.036Z,17.58
2023-10-04T19:22:33.065Z,17.53
2023-10-04T19:25:00.833Z,17.38
2023-10-04T19:27:27.857Z,17.31
2023-10-04T19:29:54.725Z,17.33
2023-10-04T19:32:22.297Z,17.33
2023-10-04T19:34:49.153Z,17.33
2023-10-04T19:37:15.985Z,17.21
2023-10-04T19:39:43.627Z,17.25
2023-10-04T19:42:11.018Z,17.07
2023-10-04T19:44:39.499Z,17.09
2023-10-04T19:47:06.476Z,17.22
2023-10-04T19:49:37.463Z,17.10
2023-10-04T19:52:07.263Z,17.02
2023-10-04T19:54:34.139Z,16.97
2023-10-04T19:57:00.861Z,17.10
2023-10-04T19:59:28.922Z,16.95
2023-10-04T20:01:55.690Z,17.09
2023-10-04T20:04:24.243Z,16.78
2023-10-04T20:06:51.765Z,16.66
2023-10-04T20:09:26.598Z,16.56
2023-10-04T20:11:53.911Z,16.61
2023-10-04T20:14:20.735Z,16.89
2023-10-04T20:16:50.490Z,16.78
2023-10-04T20:19:18.725Z,16.70
2023-10-04T20:21:46.338Z,16.62
2023-10-04T20:24:13.467Z,16.51
2023-10-04T20:26:40.244Z,16.49
2023-10-04T20:29:07.064Z,16.38
2023-10-04T20:31:34.513Z,16.44
2023-10-04T20:34:02.422Z,16.40
2023-10-04T20:36:29.323Z,16.29
2023-10-04T20:38:57.418Z,16.21
2023-10-04T20:41:24.422Z,16.23
2023-10-04T20:43:52.681Z,16.21
2023-10-04T20:46:19.486Z,16.21
2023-10-04T20:48:47.403Z,16.14
2023-10-04T20:51:14.273Z,16.06
2023-10-04T20:53:41.068Z,16.00
2023-10-04T20:56:08.024Z,16.02
2023-10-04T20:58:34.794Z,16.02
2023-10-04T21:01:03.111Z,16.04
2023-10-04T21:03:31.666Z,16.08
2023-10-04T21:05:58.630Z,15.97
2023-10-04T21:08:26.021Z,15.95
2023-10-04T21:10:52.740Z,15.97
2023-10-04T21:13:19.923Z,15.83
2023-10-04T21:15:46.738Z,15.82
2023-10-04T21:18:14.110Z,15.81
2023-10-04T21:20:40.864Z,15.66
2023-10-04T21:23:07.705Z,15.52
2023-10-04T21:25:34.628Z,15.50
2023-10-04T21:28:01.441Z,15.51
2023-10-04T21:30:40.077Z,15.47
2023-10-04T21:33:17.706Z,15.22
2023-10-04T21:35:53.622Z,14.96
2023-10-04T21:38:27.530Z,14.99
2023-10-04T21:40:55.639Z,15.08
2023-10-04T21:43:22.380Z,15.08
2023-10-04T21:45:58.464Z,14.99
2023-10-04T21:48:30.470Z,14.89
2023-10-04T21:50:59.359Z,14.88
2023-10-04T21:53:26.398Z,14.88
2023-10-04T21:55:53.346Z,14.90
2023-10-04T21:58:20.597Z,15.04
2023-10-04T22:00:54.725Z,14.89
2023-10-04T22:03:25.337Z,14.84
2023-10-04T22:05:56.946Z,15.02
2023-10-04T22:08:25.382Z,15.15
2023-10-04T22:10:54.749Z,14.99
2023-10-04T22:13:21.478Z,15.27
2023-10-04T22:15:48.805Z,15.26
2023-10-04T22:18:15.628Z,15.49
2023-10-04T22:20:42.793Z,15.56
2023-10-04T22:23:10.647Z,15.64
2023-10-04T22:25:37.516Z,15.72
2023-10-04T22:28:07.430Z,15.73
2023-10-04T22:30:34.973Z,15.79
2023-10-04T22:33:02.015Z,15.99
2023-10-04T22:35:31.018Z,16.04
2023-10-04T22:37:58.251Z,15.94
2023-10-04T22:40:26.209Z,15.98
2023-10-04T22:42:58.997Z,15.79
2023-10-04T22:45:28.016Z,15.65
2023-10-04T22:47:56.575Z,15.78
2023-10-04T22:50:23.910Z,15.93
2023-10-04T22:52:51.713Z,16.12
2023-10-04T22:55:18.518Z,16.21
2023-10-04T22:57:52.518Z,16.31
2023-10-04T23:00:19.876Z,16.28
2023-10-04T23:02:47.272Z,16.29
2023-10-04T23:05:15.051Z,16.29
2023-10-04T23:07:42.959Z,16.22
2023-10-04T23:10:22.754Z,16.16
2023-10-04T23:12:51.577Z,16.22
2023-10-04T23:15:27.495Z,16.34
2023-10-04T23:17:58.071Z,16.44
2023-10-04T23:20:34.935Z,16.49
2023-10-04T23:23:06.611Z,16.66
2023-10-04T23:25:37.193Z,16.67
2023-10-04T23:28:07.277Z,16.66
2023-10-04T23:30:43.039Z,16.75
2023-10-04T23:33:10.853Z,16.69
2023-10-04T23:35:40.903Z,16.68
2023-10-04T23:38:22.324Z,16.62
2023-10-04T23:40:49.816Z,16.62
2023-10-04T23:43:20.075Z,16.64
2023-10-04T23:45:48.085Z,16.57
2023-10-04T23:48:34.779Z,16.61
2023-10-04T23:51:09.445Z,16.55
2023-10-04T23:53:42.715Z,16.55
2023-10-04T23:56:09.629Z,16.55
2023-10-04T23:58:44.941Z,16.44
